createdAt,value
2018-03-06T00:00:21.916Z,7.63
2018-03-06T00:01:21.902Z,7.60
2018-03-06T00:02:21.903Z,7.55
2018-03-06T00:03:21.883Z,7.57
2018-03-06T00:04:21.848Z,7.55
2018-03-06T00:05:21.832Z,7.52
2018-03-06T00:06:21.826Z,7.55
2018-03-06T00:07:21.805Z,7.49
2018-03-06T00:08:21.831Z,7.53
2018-03-06T00:09:21.761Z,7.46
2018-03-06T00:10:21.752Z,7.46
2018-03-06T00:11:21.731Z,7.58
2018-03-06T00:12:21.714Z,7.53
2018-03-06T00:13:21.721Z,7.49
2018-03-06T00:14:21.696Z,7.49
2018-03-06T00:15:21.663Z,7.45
2018-03-06T00:16:21.648Z,7.48
2018-03-06T00:17:21.632Z,7.46
2018-03-06T00:18:21.625Z,7.40
2018-03-06T00:19:21.626Z,7.49
2018-03-06T00:20:21.584Z,7.35
2018-03-06T00:21:21.562Z,7.40
2018-03-06T00:22:21.544Z,7.39
2018-03-06T00:23:21.526Z,7.49
2018-03-06T00:24:21.511Z,7.48
2018-03-06T00:25:21.525Z,7.46
2018-03-06T00:26:21.516Z,7.46
2018-03-06T00:27:21.473Z,7.48
2018-03-06T00:28:21.443Z,7.42
2018-03-06T00:29:21.430Z,7.43
2018-03-06T00:30:21.404Z,7.39
2018-03-06T00:31:21.414Z,7.42
2018-03-06T00:32:21.413Z,7.32
2018-03-06T00:33:21.360Z,7.28
2018-03-06T00:34:21.342Z,7.31
2018-03-06T00:35:21.329Z,7.35
2018-03-06T00:36:21.306Z,7.32
2018-03-06T00:37:21.310Z,7.40
2018-03-06T00:38:21.301Z,7.37
2018-03-06T00:39:21.256Z,7.46
2018-03-06T00:40:21.244Z,7.45
2018-03-06T00:41:21.230Z,7.49
2018-03-06T00:42:42.221Z,7.49
2018-03-06T00:43:21.212Z,7.48
2018-03-06T00:44:21.207Z,7.42
2018-03-06T00:45:21.156Z,7.55
2018-03-06T00:46:21.135Z,7.53
2018-03-06T00:47:21.120Z,7.39
2018-03-06T00:48:21.120Z,7.46
2018-03-06T00:49:21.087Z,7.40
2018-03-06T00:50:21.118Z,7.40
2018-03-06T00:51:21.066Z,7.43
2018-03-06T00:52:21.052Z,7.39
2018-03-06T00:53:21.022Z,7.39
2018-03-06T00:54:21.005Z,7.31
2018-03-06T00:55:20.991Z,7.23
2018-03-06T00:56:20.971Z,7.23
2018-03-06T00:57:20.964Z,7.20
2018-03-06T00:58:20.961Z,7.21
2018-03-06T00:59:20.917Z,7.17
2018-03-06T01:00:20.900Z,7.09
2018-03-06T01:01:20.879Z,7.16
2018-03-06T01:02:20.879Z,7.15
2018-03-06T01:03:20.850Z,7.21
2018-03-06T01:04:20.845Z,7.12
2018-03-06T01:05:20.815Z,7.12
2018-03-06T01:06:20.797Z,7.13
2018-03-06T01:07:20.778Z,7.10
2018-03-06T01:08:20.766Z,7.09
2018-03-06T01:09:20.757Z,7.12
2018-03-06T01:10:20.724Z,7.13
2018-03-06T01:11:20.713Z,7.07
2018-03-06T01:12:20.690Z,7.21
2018-03-06T01:13:20.676Z,7.13
2018-03-06T01:14:20.715Z,7.10
2018-03-06T01:15:20.646Z,7.10
2018-03-06T01:16:20.647Z,7.09
2018-03-06T01:17:20.618Z,7.10
2018-03-06T01:18:20.588Z,7.16
2018-03-06T01:19:20.574Z,7.13
2018-03-06T01:20:20.559Z,7.15
2018-03-06T01:21:20.555Z,7.15
2018-03-06T01:22:20.526Z,7.17
2018-03-06T01:23:20.501Z,7.12
2018-03-06T01:24:20.498Z,7.05
2018-03-06T01:25:20.469Z,7.09
2018-03-06T01:26:20.496Z,6.97
2018-03-06T01:27:20.447Z,7.07
2018-03-06T01:28:20.421Z,7.10
2018-03-06T01:29:20.403Z,7.07
2018-03-06T01:30:20.384Z,7.20
2018-03-06T01:31:20.380Z,7.12
2018-03-06T01:32:20.369Z,7.10
2018-03-06T01:33:20.332Z,7.10
2018-03-06T01:34:20.332Z,7.09
2018-03-06T01:35:20.304Z,7.20
2018-03-06T01:36:20.279Z,7.27
2018-03-06T01:37:20.275Z,7.32
2018-03-06T01:38:20.247Z,7.34
2018-03-06T01:39:20.246Z,7.31
2018-03-06T01:40:20.214Z,7.27
2018-03-06T01:41:20.191Z,7.37
2018-03-06T01:42:20.181Z,7.23
2018-03-06T01:43:20.177Z,7.32
2018-03-06T01:44:20.146Z,7.31
2018-03-06T01:45:20.124Z,7.32
2018-03-06T01:46:20.104Z,7.32
2018-03-06T01:47:20.095Z,7.32
2018-03-06T01:48:20.074Z,7.32
2018-03-06T01:49:20.076Z,7.30
2018-03-06T01:50:20.052Z,7.35
2018-03-06T01:51:20.028Z,7.30
2018-03-06T01:52:20.013Z,7.32
2018-03-06T01:53:19.989Z,7.42
2018-03-06T01:54:19.974Z,7.48
2018-03-06T01:55:19.984Z,7.45
2018-03-06T01:56:19.934Z,7.55
2018-03-06T01:57:19.925Z,7.52
2018-03-06T01:58:19.907Z,7.48
2018-03-06T01:59:19.900Z,7.49
2018-03-06T02:00:19.870Z,7.45
2018-03-06T02:01:19.878Z,7.48
2018-03-06T02:02:19.833Z,7.40
2018-03-06T02:03:19.819Z,7.49
2018-03-06T02:04:19.806Z,7.43
2018-03-06T02:05:19.801Z,7.46
2018-03-06T02:06:19.783Z,7.42
2018-03-06T02:07:19.750Z,7.43
2018-03-06T02:08:19.733Z,7.43
2018-03-06T02:09:19.711Z,7.35
2018-03-06T02:10:19.704Z,7.34
2018-03-06T02:11:19.702Z,7.39
2018-03-06T02:12:19.671Z,7.31
2018-03-06T02:13:19.656Z,7.31
2018-03-06T02:14:19.630Z,7.28
2018-03-06T02:15:19.618Z,7.32
2018-03-06T02:16:19.619Z,7.30
2018-03-06T02:17:19.576Z,7.23
2018-03-06T02:18:19.573Z,7.24
2018-03-06T02:19:19.542Z,7.24
2018-03-06T02:20:19.540Z,7.30
2018-03-06T02:21:19.514Z,7.25
2018-03-06T02:22:19.511Z,7.35
2018-03-06T02:23:19.489Z,7.24
2018-03-06T02:24:19.461Z,7.21
2018-03-06T02:25:19.444Z,7.20
2018-03-06T02:26:19.439Z,7.17
2018-03-06T02:27:19.409Z,7.25
2018-03-06T02:28:19.392Z,7.30
2018-03-06T02:29:19.391Z,7.30
2018-03-06T02:30:19.359Z,7.30
2018-03-06T02:31:19.344Z,7.31
2018-03-06T02:32:19.344Z,7.30
2018-03-06T02:33:19.307Z,7.31
2018-03-06T02:34:40.307Z,7.32
2018-03-06T02:35:19.272Z,7.34
2018-03-06T02:36:19.261Z,7.34
2018-03-06T02:37:19.237Z,7.45
2018-03-06T02:38:19.225Z,7.39
2018-03-06T02:39:19.224Z,7.42
2018-03-06T02:40:19.189Z,7.42
2018-03-06T02:41:19.170Z,7.40
2018-03-06T02:42:19.166Z,7.39
2018-03-06T02:43:19.137Z,7.49
2018-03-06T02:44:19.119Z,7.50
2018-03-06T02:45:19.114Z,7.49
2018-03-06T02:46:19.095Z,7.49
2018-03-06T02:47:19.101Z,7.53
2018-03-06T02:48:19.050Z,7.48
2018-03-06T02:49:19.039Z,7.49
2018-03-06T02:50:19.018Z,7.42
2018-03-06T02:51:19.000Z,7.49
2018-03-06T02:52:18.986Z,7.49
2018-03-06T02:53:18.982Z,7.50
2018-03-06T02:54:18.968Z,7.46
2018-03-06T02:55:18.947Z,7.50
2018-03-06T02:56:18.918Z,7.49
2018-03-06T02:57:18.900Z,7.49
2018-03-06T02:58:18.876Z,7.50
2018-03-06T02:59:18.881Z,7.52
2018-03-06T03:00:18.848Z,7.50
2018-03-06T03:01:18.852Z,7.50
2018-03-06T03:02:18.815Z,7.50
2018-03-06T03:03:18.798Z,7.53
2018-03-06T03:04:18.797Z,7.45
2018-03-06T03:05:18.785Z,7.40
2018-03-06T03:06:18.747Z,7.50
2018-03-06T03:07:18.727Z,7.53
2018-03-06T03:08:18.709Z,7.42
2018-03-06T03:09:18.712Z,7.50
2018-03-06T03:10:18.673Z,7.52
2018-03-06T03:11:18.662Z,7.48
2018-03-06T03:12:18.648Z,7.53
2018-03-06T03:13:18.637Z,7.55
2018-03-06T03:14:18.630Z,7.55
2018-03-06T03:15:18.594Z,7.50
2018-03-06T03:16:18.576Z,7.58
2018-03-06T03:17:18.556Z,7.43
2018-03-06T03:18:18.563Z,7.52
2018-03-06T03:19:18.536Z,7.48
2018-03-06T03:20:18.503Z,7.50
2018-03-06T03:21:18.490Z,7.61
2018-03-06T03:22:18.471Z,7.49
2018-03-06T03:23:18.458Z,7.49
2018-03-06T03:24:18.435Z,7.48
2018-03-06T03:25:18.436Z,7.53
2018-03-06T03:26:18.406Z,7.42
2018-03-06T03:27:18.430Z,7.53
2018-03-06T03:28:18.371Z,7.40
2018-03-06T03:29:18.350Z,7.52
2018-03-06T03:30:18.340Z,7.42
2018-03-06T03:31:18.318Z,7.48
2018-03-06T03:32:18.301Z,7.57
2018-03-06T03:33:18.302Z,7.50
2018-03-06T03:34:18.262Z,7.52
2018-03-06T03:35:18.250Z,7.52
2018-03-06T03:36:18.233Z,7.49
2018-03-06T03:37:18.231Z,7.46
2018-03-06T03:38:18.212Z,7.48
2018-03-06T03:39:18.196Z,7.42
2018-03-06T03:40:18.166Z,7.35
2018-03-06T03:41:18.142Z,7.31
2018-03-06T03:42:18.157Z,7.32
2018-03-06T03:43:18.110Z,7.46
2018-03-06T03:44:18.110Z,7.50
2018-03-06T03:45:18.088Z,7.46
2018-03-06T03:46:18.061Z,7.53
2018-03-06T03:47:18.045Z,7.43
2018-03-06T03:48:18.025Z,7.43
2018-03-06T03:49:18.025Z,7.34
2018-03-06T03:50:17.994Z,7.49
2018-03-06T03:51:17.980Z,7.43
2018-03-06T03:52:17.961Z,7.37
2018-03-06T03:53:17.946Z,7.48
2018-03-06T03:54:17.939Z,7.45
2018-03-06T03:55:17.920Z,7.52
2018-03-06T03:56:17.890Z,7.49
2018-03-06T03:57:17.877Z,7.55
2018-03-06T03:58:17.886Z,7.48
2018-03-06T03:59:17.845Z,7.49
2018-03-06T04:00:17.841Z,7.46
2018-03-06T04:01:17.823Z,7.42
2018-03-06T04:02:17.788Z,7.50
2018-03-06T04:03:17.771Z,7.49
2018-03-06T04:04:17.772Z,7.49
2018-03-06T04:05:17.736Z,7.50
2018-03-06T04:06:17.724Z,7.46
2018-03-06T04:07:17.726Z,7.50
2018-03-06T04:08:17.691Z,7.42
2018-03-06T04:09:17.670Z,7.49
2018-03-06T04:10:17.653Z,7.45
2018-03-06T04:11:17.632Z,7.48
2018-03-06T04:12:17.611Z,7.48
2018-03-06T04:13:17.615Z,7.53
2018-03-06T04:14:17.582Z,7.40
2018-03-06T04:15:17.563Z,7.53
2018-03-06T04:16:17.570Z,7.45
2018-03-06T04:17:17.535Z,7.45
2018-03-06T04:18:17.518Z,7.40
2018-03-06T04:19:17.494Z,7.46
2018-03-06T04:20:17.492Z,7.37
2018-03-06T04:21:17.459Z,7.55
2018-03-06T04:22:17.472Z,7.48
2018-03-06T04:23:17.437Z,7.49
2018-03-06T04:24:17.427Z,7.46
2018-03-06T04:25:17.388Z,7.50
2018-03-06T04:26:17.376Z,7.37
2018-03-06T04:27:17.362Z,7.42
2018-03-06T04:28:17.357Z,7.45
2018-03-06T04:29:17.327Z,7.46
2018-03-06T04:30:17.304Z,7.48
2018-03-06T04:31:17.282Z,7.50
2018-03-06T04:32:17.290Z,7.48
2018-03-06T04:33:17.258Z,7.48
2018-03-06T04:34:17.238Z,7.48
2018-03-06T04:35:17.216Z,7.50
2018-03-06T04:36:17.203Z,7.53
2018-03-06T04:37:17.201Z,7.53
2018-03-06T04:38:17.168Z,7.43
2018-03-06T04:39:17.153Z,7.52
2018-03-06T04:40:17.137Z,7.50
2018-03-06T04:41:17.119Z,7.52
2018-03-06T04:42:17.095Z,7.50
2018-03-06T04:43:38.098Z,7.52
2018-03-06T04:44:17.083Z,7.42
2018-03-06T04:45:17.071Z,7.48
2018-03-06T04:46:17.079Z,7.57
2018-03-06T04:47:17.069Z,7.46
2018-03-06T04:48:16.992Z,7.57
2018-03-06T04:49:16.995Z,7.55
2018-03-06T04:50:16.974Z,7.53
2018-03-06T04:51:16.947Z,7.48
2018-03-06T04:52:16.925Z,7.50
2018-03-06T04:53:16.922Z,7.58
2018-03-06T04:54:16.895Z,7.61
2018-03-06T04:55:16.875Z,7.53
2018-03-06T04:56:16.877Z,7.58
2018-03-06T04:57:16.843Z,7.52
2018-03-06T04:58:16.826Z,7.50
2018-03-06T04:59:16.808Z,7.52
2018-03-06T05:00:16.792Z,7.55
2018-03-06T05:01:16.795Z,7.50
2018-03-06T05:02:16.758Z,7.50
2018-03-06T05:03:16.739Z,7.60
2018-03-06T05:04:16.727Z,7.61
2018-03-06T05:05:16.704Z,7.58
2018-03-06T05:06:16.704Z,7.57
2018-03-06T05:07:16.675Z,7.60
2018-03-06T05:08:16.658Z,7.63
2018-03-06T05:09:16.663Z,7.61
2018-03-06T05:10:16.617Z,7.60
2018-03-06T05:11:16.598Z,7.55
2018-03-06T05:12:16.583Z,7.67
2018-03-06T05:13:16.567Z,7.74
2018-03-06T05:14:16.569Z,7.68
2018-03-06T05:15:16.527Z,7.69
2018-03-06T05:16:16.512Z,7.68
2018-03-06T05:17:16.496Z,7.57
2018-03-06T05:18:16.476Z,7.63
2018-03-06T05:19:16.462Z,7.57
2018-03-06T05:20:16.456Z,7.57
2018-03-06T05:21:16.445Z,7.58
2018-03-06T05:22:16.409Z,7.53
2018-03-06T05:23:16.394Z,7.55
2018-03-06T05:24:16.370Z,7.52
2018-03-06T05:25:16.372Z,7.57
2018-03-06T05:26:16.340Z,7.48
2018-03-06T05:27:16.341Z,7.53
2018-03-06T05:28:16.307Z,7.53
2018-03-06T05:29:16.284Z,7.53
2018-03-06T05:30:16.274Z,7.49
2018-03-06T05:31:16.253Z,7.48
2018-03-06T05:32:16.236Z,7.46
2018-03-06T05:33:16.231Z,7.52
2018-03-06T05:34:16.194Z,7.50
2018-03-06T05:35:16.182Z,7.48
2018-03-06T05:36:16.168Z,7.53
2018-03-06T05:37:16.153Z,7.50
2018-03-06T05:38:16.144Z,7.46
2018-03-06T05:39:16.126Z,7.48
2018-03-06T05:40:16.119Z,7.43
2018-03-06T05:41:16.082Z,7.42
2018-03-06T05:42:16.067Z,7.50
2018-03-06T05:43:16.046Z,7.37
2018-03-06T05:44:16.038Z,7.46
2018-03-06T05:45:16.025Z,7.46
2018-03-06T05:46:15.989Z,7.40
2018-03-06T05:47:15.974Z,7.42
2018-03-06T05:48:15.954Z,7.39
2018-03-06T05:49:15.935Z,7.30
2018-03-06T05:50:15.932Z,7.37
2018-03-06T05:51:15.912Z,7.28
2018-03-06T05:52:15.884Z,7.34
2018-03-06T05:53:15.937Z,7.31
2018-03-06T05:54:15.871Z,7.35
2018-03-06T05:55:15.833Z,7.40
2018-03-06T05:56:15.846Z,7.37
2018-03-06T05:57:15.818Z,7.31
2018-03-06T05:58:15.818Z,7.32
2018-03-06T05:59:15.770Z,7.28
2018-03-06T06:00:15.789Z,7.34
2018-03-06T06:01:15.738Z,7.27
2018-03-06T06:02:15.730Z,7.23
2018-03-06T06:03:15.716Z,7.32
2018-03-06T06:04:15.720Z,7.23
2018-03-06T06:05:15.670Z,7.23
2018-03-06T06:06:15.677Z,7.21
2018-03-06T06:07:15.677Z,7.25
2018-03-06T06:08:15.645Z,7.23
2018-03-06T06:09:15.598Z,7.28
2018-03-06T06:10:15.585Z,7.27
2018-03-06T06:11:15.615Z,7.15
2018-03-06T06:12:15.588Z,7.20
2018-03-06T06:13:15.533Z,7.23
2018-03-06T06:14:15.550Z,7.21
2018-03-06T06:15:15.532Z,7.25
2018-03-06T06:16:15.533Z,7.28
2018-03-06T06:17:15.490Z,7.35
2018-03-06T06:18:15.485Z,7.31
2018-03-06T06:19:15.500Z,7.31
2018-03-06T06:20:15.471Z,7.21
2018-03-06T06:21:15.469Z,7.27
2018-03-06T06:22:15.475Z,7.21
2018-03-06T06:23:15.434Z,7.28
2018-03-06T06:24:15.427Z,7.34
2018-03-06T06:25:15.430Z,7.32
2018-03-06T06:26:15.370Z,7.24
2018-03-06T06:27:15.317Z,7.28
2018-03-06T06:28:15.414Z,7.28
2018-03-06T06:29:16.189Z,7.17
2018-03-06T06:30:16.177Z,7.20
2018-03-06T06:31:15.331Z,7.20
2018-03-06T06:32:15.235Z,7.23
2018-03-06T06:33:15.231Z,7.37
2018-03-06T06:34:15.194Z,7.35
2018-03-06T06:35:15.168Z,7.30
2018-03-06T06:36:15.134Z,7.32
2018-03-06T06:37:15.127Z,7.34
2018-03-06T06:38:15.747Z,7.21
2018-03-06T06:39:15.087Z,7.23
2018-03-06T06:40:15.137Z,7.21
2018-03-06T06:41:15.121Z,7.20
2018-03-06T06:42:15.057Z,7.35
2018-03-06T06:43:15.058Z,7.28
2018-03-06T06:44:14.982Z,7.30
2018-03-06T06:45:14.963Z,7.28
2018-03-06T06:46:14.951Z,7.32
2018-03-06T06:47:14.924Z,7.32
2018-03-06T06:48:14.906Z,7.31
2018-03-06T06:49:14.891Z,7.32
2018-03-06T06:50:35.886Z,7.31
2018-03-06T06:51:14.851Z,7.37
2018-03-06T06:52:14.846Z,7.35
2018-03-06T06:53:14.819Z,7.40
2018-03-06T06:54:14.802Z,7.34
2018-03-06T06:55:14.781Z,7.31
2018-03-06T06:56:14.781Z,7.40
2018-03-06T06:57:14.753Z,7.28
2018-03-06T06:58:14.735Z,7.31
2018-03-06T06:59:14.709Z,7.32
2018-03-06T07:00:14.693Z,7.31
2018-03-06T07:01:14.700Z,7.30
2018-03-06T07:02:14.658Z,7.30
2018-03-06T07:03:14.640Z,7.39
2018-03-06T07:04:14.654Z,7.37
2018-03-06T07:05:14.608Z,7.34
2018-03-06T07:06:14.590Z,7.28
2018-03-06T07:07:14.633Z,7.42
2018-03-06T07:08:14.556Z,7.39
2018-03-06T07:09:14.547Z,7.42
2018-03-06T07:10:14.525Z,7.43
2018-03-06T07:11:14.631Z,7.48
2018-03-06T07:12:14.507Z,7.49
2018-03-06T07:13:14.480Z,7.48
2018-03-06T07:14:14.448Z,7.42
2018-03-06T07:15:14.438Z,7.52
2018-03-06T07:16:14.428Z,7.48
2018-03-06T07:17:14.403Z,7.50
2018-03-06T07:18:14.384Z,7.52
2018-03-06T07:19:14.364Z,7.49
2018-03-06T07:20:14.367Z,7.48
2018-03-06T07:21:14.366Z,7.45
2018-03-06T07:22:14.328Z,7.49
2018-03-06T07:23:14.314Z,7.50
2018-03-06T07:24:14.282Z,7.50
2018-03-06T07:25:14.259Z,7.49
2018-03-06T07:26:14.248Z,7.45
2018-03-06T07:27:14.276Z,7.55
2018-03-06T07:28:14.211Z,7.49
2018-03-06T07:29:14.192Z,7.57
2018-03-06T07:30:14.179Z,7.50
2018-03-06T07:31:14.181Z,7.55
2018-03-06T07:32:14.142Z,7.58
2018-03-06T07:33:14.144Z,7.60
2018-03-06T07:34:14.113Z,7.50
2018-03-06T07:35:14.098Z,7.57
2018-03-06T07:36:14.137Z,7.60
2018-03-06T07:37:14.053Z,7.61
2018-03-06T07:38:14.044Z,7.68
2018-03-06T07:39:14.040Z,7.60
2018-03-06T07:40:14.009Z,7.64
2018-03-06T07:41:13.989Z,7.64
2018-03-06T07:42:13.987Z,7.60
2018-03-06T07:43:13.958Z,7.79
2018-03-06T07:44:13.962Z,7.85
2018-03-06T07:45:13.923Z,7.90
2018-03-06T07:46:13.907Z,7.82
2018-03-06T07:47:13.887Z,7.92
2018-03-06T07:48:13.886Z,8.01
2018-03-06T07:49:13.870Z,8.07
2018-03-06T07:50:13.837Z,8.18
2018-03-06T07:51:13.824Z,8.20
2018-03-06T07:52:13.802Z,8.19
2018-03-06T07:53:13.783Z,8.16
2018-03-06T07:54:13.764Z,8.10
2018-03-06T07:55:13.773Z,8.07
2018-03-06T07:56:13.735Z,8.15
2018-03-06T07:57:13.749Z,8.16
2018-03-06T07:58:13.729Z,8.25
2018-03-06T07:59:13.703Z,8.23
2018-03-06T08:00:13.666Z,8.20
2018-03-06T08:01:13.654Z,8.18
2018-03-06T08:02:13.639Z,8.19
2018-03-06T08:03:13.624Z,8.11
2018-03-06T08:04:13.604Z,8.07
2018-03-06T08:05:13.598Z,8.04
2018-03-06T08:06:13.585Z,8.08
2018-03-06T08:07:13.546Z,8.15
2018-03-06T08:08:13.541Z,8.18
2018-03-06T08:09:13.513Z,8.38
2018-03-06T08:10:13.502Z,8.44
2018-03-06T08:11:13.486Z,8.55
2018-03-06T08:12:13.481Z,8.55
2018-03-06T08:13:13.448Z,8.53
2018-03-06T08:14:34.445Z,8.66
2018-03-06T08:15:13.414Z,8.62
2018-03-06T08:16:13.404Z,8.58
2018-03-06T08:17:13.388Z,8.56
2018-03-06T08:18:13.369Z,8.52
2018-03-06T08:19:13.369Z,8.48
2018-03-06T08:20:13.343Z,8.38
2018-03-06T08:21:13.326Z,8.41
2018-03-06T08:22:13.305Z,8.45
2018-03-06T08:23:13.286Z,8.44
2018-03-06T08:24:13.284Z,8.43
2018-03-06T08:25:13.254Z,8.52
2018-03-06T08:26:13.238Z,8.48
2018-03-06T08:27:13.736Z,8.53
2018-03-06T08:28:13.206Z,8.47
2018-03-06T08:29:13.200Z,8.53
2018-03-06T08:30:13.205Z,8.61
2018-03-06T08:31:13.162Z,8.70
2018-03-06T08:32:13.145Z,8.66
2018-03-06T08:33:13.126Z,8.61
2018-03-06T08:34:13.115Z,8.56
2018-03-06T08:35:13.083Z,8.68
2018-03-06T08:36:13.086Z,8.66
2018-03-06T08:37:13.061Z,8.71
2018-03-06T08:38:13.037Z,8.73
2018-03-06T08:39:13.019Z,8.68
2018-03-06T08:40:12.998Z,8.76
2018-03-06T08:41:13.006Z,8.70
2018-03-06T08:42:12.983Z,8.83
2018-03-06T08:43:12.966Z,8.79
2018-03-06T08:44:12.950Z,8.91
2018-03-06T08:45:12.976Z,8.92
2018-03-06T08:46:12.916Z,8.87
2018-03-06T08:47:13.699Z,8.87
2018-03-06T08:48:12.887Z,9.01
2018-03-06T08:49:12.869Z,8.99
2018-03-06T08:50:12.868Z,8.94
2018-03-06T08:51:12.871Z,8.94
2018-03-06T08:52:12.845Z,8.96
2018-03-06T08:53:12.814Z,9.14
2018-03-06T08:54:12.846Z,9.17
2018-03-06T08:55:12.795Z,9.24
2018-03-06T08:56:12.776Z,9.29
2018-03-06T08:57:12.765Z,9.31
2018-03-06T08:58:12.758Z,9.39
2018-03-06T08:59:12.715Z,9.51
2018-03-06T09:00:12.731Z,9.69
2018-03-06T09:01:12.776Z,9.84
2018-03-06T09:02:12.723Z,9.97
2018-03-06T09:03:12.762Z,10.17
2018-03-06T09:04:12.714Z,10.23
2018-03-06T09:05:12.698Z,10.38
2018-03-06T09:06:12.646Z,10.34
2018-03-06T09:07:12.694Z,10.33
2018-03-06T09:08:12.620Z,10.40
2018-03-06T09:09:12.668Z,10.42
2018-03-06T09:10:12.623Z,10.51
2018-03-06T09:11:12.573Z,10.33
2018-03-06T09:12:12.558Z,10.26
2018-03-06T09:13:12.509Z,10.30
2018-03-06T09:14:12.526Z,10.34
2018-03-06T09:15:12.556Z,10.26
2018-03-06T09:16:12.510Z,10.27
2018-03-06T09:17:12.505Z,10.38
2018-03-06T09:18:12.505Z,10.41
2018-03-06T09:19:12.459Z,10.36
2018-03-06T09:20:12.422Z,10.40
2018-03-06T09:21:12.408Z,10.23
2018-03-06T09:22:12.409Z,10.33
2018-03-06T09:23:12.373Z,10.42
2018-03-06T09:24:12.358Z,10.34
2018-03-06T09:25:12.376Z,10.30
2018-03-06T09:26:12.347Z,10.32
2018-03-06T09:27:12.361Z,10.32
2018-03-06T09:28:12.254Z,10.17
2018-03-06T09:29:12.357Z,10.11
2018-03-06T09:30:12.309Z,10.04
2018-03-06T09:31:12.263Z,10.14
2018-03-06T09:32:12.319Z,10.07
2018-03-06T09:33:12.271Z,10.20
2018-03-06T09:34:12.219Z,10.34
2018-03-06T09:35:12.282Z,10.29
2018-03-06T09:36:12.252Z,10.27
2018-03-06T09:37:12.257Z,10.32
2018-03-06T09:38:12.355Z,10.33
2018-03-06T09:39:12.196Z,10.27
2018-03-06T09:40:12.136Z,10.27
2018-03-06T09:41:13.311Z,10.26
2018-03-06T09:42:12.130Z,10.27
2018-03-06T09:43:12.110Z,10.41
2018-03-06T09:44:12.048Z,10.48
2018-03-06T09:45:12.105Z,10.66
2018-03-06T09:46:12.064Z,10.67
2018-03-06T09:47:12.046Z,10.60
2018-03-06T09:48:12.031Z,10.63
2018-03-06T09:49:12.000Z,10.74
2018-03-06T09:50:11.978Z,10.92
2018-03-06T09:51:11.926Z,11.04
2018-03-06T09:52:11.926Z,11.24
2018-03-06T09:53:11.905Z,11.39
2018-03-06T09:54:11.892Z,11.42
2018-03-06T09:55:11.879Z,11.43
2018-03-06T09:56:11.842Z,11.37
2018-03-06T09:57:11.822Z,11.60
2018-03-06T09:58:11.823Z,11.60
2018-03-06T09:59:11.865Z,11.83
2018-03-06T10:12:36.680Z,14.75
2018-03-06T10:13:36.624Z,14.42
2018-03-06T10:14:36.605Z,13.91
2018-03-06T10:15:36.596Z,13.77
2018-03-06T10:16:36.601Z,13.88
2018-03-06T10:17:36.575Z,13.70
2018-03-06T10:18:36.553Z,13.78
2018-03-06T10:19:36.543Z,14.02
2018-03-06T10:20:36.541Z,14.25
2018-03-06T10:21:36.526Z,14.09
2018-03-06T10:22:36.533Z,14.29
2018-03-06T10:23:36.524Z,14.61
2018-03-06T10:24:36.490Z,14.75
2018-03-06T10:25:36.501Z,14.51
2018-03-06T10:26:36.496Z,14.52
2018-03-06T10:27:36.463Z,14.69
2018-03-06T10:28:36.450Z,14.61
2018-03-06T10:29:36.438Z,14.51
2018-03-06T10:30:36.442Z,14.51
2018-03-06T10:31:36.423Z,14.69
2018-03-06T10:32:36.448Z,14.51
2018-03-06T10:33:36.409Z,14.37
2018-03-06T10:34:36.396Z,13.91
2018-03-06T10:35:36.391Z,14.07
2018-03-06T10:36:36.387Z,14.22
2018-03-06T10:37:36.389Z,14.29
2018-03-06T10:38:36.361Z,14.22
2018-03-06T10:39:36.351Z,14.33
2018-03-06T10:40:36.361Z,14.29
2018-03-06T10:41:36.371Z,14.35
2018-03-06T10:42:36.327Z,14.39
2018-03-06T10:43:36.345Z,14.27
2018-03-06T10:44:36.325Z,13.95
2018-03-06T10:45:36.301Z,13.45
2018-03-06T10:46:36.309Z,13.15
2018-03-06T10:47:36.302Z,13.11
2018-03-06T10:48:36.295Z,13.14
2018-03-06T10:49:36.345Z,13.11
2018-03-06T10:50:36.266Z,13.01
2018-03-06T10:51:36.268Z,13.12
2018-03-06T10:52:36.252Z,13.01
2018-03-06T10:53:36.235Z,13.10
2018-03-06T10:54:36.235Z,13.03
2018-03-06T10:55:36.233Z,12.68
2018-03-06T10:56:36.202Z,12.56
2018-03-06T10:57:36.195Z,12.60
2018-03-06T10:58:36.195Z,12.64
2018-03-06T10:59:36.188Z,12.77
2018-03-06T11:00:36.186Z,12.67
2018-03-06T11:01:36.150Z,12.64
2018-03-06T11:02:36.131Z,12.78
2018-03-06T11:03:36.124Z,12.89
2018-03-06T11:04:36.126Z,13.01
2018-03-06T11:05:36.112Z,12.83
2018-03-06T11:06:36.127Z,12.82
2018-03-06T11:07:36.096Z,12.82
2018-03-06T11:08:36.068Z,12.72
2018-03-06T11:09:36.058Z,12.75
2018-03-06T11:10:36.057Z,12.90
2018-03-06T11:11:36.056Z,13.07
2018-03-06T11:12:36.027Z,13.12
2018-03-06T11:13:36.006Z,13.00
2018-03-06T11:14:36.003Z,13.08
2018-03-06T11:15:35.984Z,13.05
2018-03-06T11:16:36.009Z,13.04
2018-03-06T11:17:36.017Z,12.93
2018-03-06T11:18:35.971Z,12.87
2018-03-06T11:19:35.939Z,12.93
2018-03-06T11:20:35.930Z,12.93
2018-03-06T11:21:35.956Z,13.08
2018-03-06T11:22:35.932Z,13.11
2018-03-06T11:23:35.907Z,13.17
2018-03-06T11:24:36.683Z,13.38
2018-03-06T11:25:35.888Z,13.20
2018-03-06T11:26:35.870Z,13.39
2018-03-06T11:27:35.973Z,13.57
2018-03-06T11:28:35.841Z,13.63
2018-03-06T11:29:35.845Z,13.88
2018-03-06T11:30:35.814Z,14.09
2018-03-06T11:31:35.820Z,14.20
2018-03-06T11:32:56.833Z,13.75
2018-03-06T11:33:35.786Z,13.62
2018-03-06T11:34:35.791Z,13.52
2018-03-06T11:35:35.771Z,13.66
2018-03-06T11:36:35.769Z,13.97
2018-03-06T11:37:35.745Z,14.29
2018-03-06T11:38:35.757Z,14.57
2018-03-06T11:39:35.734Z,14.46
2018-03-06T11:40:35.709Z,14.17
2018-03-06T11:41:35.702Z,14.33
2018-03-06T11:42:35.693Z,14.32
2018-03-06T11:43:35.680Z,14.39
2018-03-06T11:44:35.682Z,14.24
2018-03-06T11:45:35.679Z,14.45
2018-03-06T11:46:35.645Z,14.51
2018-03-06T11:47:35.642Z,14.46
2018-03-06T11:48:35.633Z,14.65
2018-03-06T11:49:35.624Z,14.77
2018-03-06T11:50:35.624Z,14.86
2018-03-06T11:51:35.625Z,14.96
2018-03-06T11:52:35.589Z,14.64
2018-03-06T11:53:35.578Z,14.52
2018-03-06T11:54:35.565Z,14.20
2018-03-06T11:55:35.574Z,13.97
2018-03-06T11:56:35.560Z,14.12
2018-03-06T11:57:35.541Z,14.18
2018-03-06T11:58:35.536Z,14.22
2018-03-06T11:59:35.527Z,14.09
2018-03-06T12:00:35.514Z,13.89
2018-03-06T12:01:35.524Z,13.79
2018-03-06T12:02:35.491Z,13.60
2018-03-06T12:03:35.483Z,13.52
2018-03-06T12:04:35.474Z,13.75
2018-03-06T12:05:35.468Z,14.02
2018-03-06T12:06:35.457Z,14.06
2018-03-06T12:07:35.464Z,13.89
2018-03-06T12:08:35.451Z,14.07
2018-03-06T12:09:35.432Z,14.22
2018-03-06T12:10:35.426Z,14.57
2018-03-06T12:11:35.434Z,14.65
2018-03-06T12:12:35.438Z,14.96
2018-03-06T12:13:35.442Z,15.36
2018-03-06T12:14:35.443Z,15.71
2018-03-06T12:15:35.365Z,15.80
2018-03-06T12:16:35.369Z,15.65
2018-03-06T12:17:35.350Z,15.47
2018-03-06T12:18:35.356Z,15.36
2018-03-06T12:19:35.346Z,15.41
2018-03-06T12:20:35.339Z,15.39
2018-03-06T12:21:35.319Z,15.51
2018-03-06T12:22:35.307Z,15.76
2018-03-06T12:23:35.315Z,15.94
2018-03-06T12:24:36.337Z,16.08
2018-03-06T12:25:35.285Z,16.14
2018-03-06T12:26:35.278Z,16.14
2018-03-06T12:27:35.272Z,15.69
2018-03-06T12:28:35.268Z,15.29
2018-03-06T12:29:56.354Z,15.16
2018-03-06T12:30:35.251Z,15.39
2018-03-06T12:31:35.248Z,15.65
2018-03-06T12:32:35.228Z,15.47
2018-03-06T12:33:35.216Z,15.36
2018-03-06T12:34:35.208Z,15.23
2018-03-06T12:35:35.235Z,15.34
2018-03-06T12:36:35.192Z,15.27
2018-03-06T12:37:35.190Z,15.21
2018-03-06T12:38:35.174Z,15.25
2018-03-06T12:39:35.164Z,15.09
2018-03-06T12:40:35.168Z,14.83
2018-03-06T12:41:35.166Z,14.54
2018-03-06T12:42:35.162Z,14.21
2018-03-06T12:43:35.166Z,14.22
2018-03-06T12:44:35.130Z,14.10
2018-03-06T12:45:35.146Z,13.99
2018-03-06T12:46:35.114Z,14.22
2018-03-06T12:47:35.108Z,14.54
2018-03-06T12:48:35.092Z,14.73
2018-03-06T12:49:35.086Z,14.81
2018-03-06T12:50:35.073Z,15.10
2018-03-06T12:51:35.080Z,15.59
2018-03-06T12:52:35.066Z,15.59
2018-03-06T12:53:35.109Z,15.31
2018-03-06T12:54:35.035Z,14.89
2018-03-06T12:55:35.024Z,14.52
2018-03-06T12:56:35.179Z,14.24
2018-03-06T12:57:35.008Z,14.18
2018-03-06T12:58:35.060Z,14.21
2018-03-06T12:59:56.015Z,14.07
2018-03-06T13:00:34.978Z,13.96
2018-03-06T13:01:34.982Z,13.96
2018-03-06T13:02:34.963Z,14.10
2018-03-06T13:03:34.967Z,14.29
2018-03-06T13:04:34.973Z,14.75
2018-03-06T13:05:34.935Z,15.14
2018-03-06T13:06:34.923Z,15.13
2018-03-06T13:07:34.916Z,15.41
2018-03-06T13:08:34.911Z,15.49
2018-03-06T13:09:35.755Z,15.72
2018-03-06T13:10:34.888Z,15.65
2018-03-06T13:11:34.873Z,15.86
2018-03-06T13:12:34.916Z,16.27
2018-03-06T13:13:34.858Z,16.41
2018-03-06T13:14:34.859Z,16.31
2018-03-06T13:15:34.858Z,16.42
2018-03-06T13:16:34.837Z,16.56
2018-03-06T13:17:34.847Z,16.31
2018-03-06T13:18:34.823Z,16.20
2018-03-06T13:19:34.816Z,16.08
2018-03-06T13:20:34.811Z,15.89
2018-03-06T13:21:34.806Z,15.67
2018-03-06T13:22:34.811Z,15.57